Lawtey, Florida
Current Conditions -  °F | °C
As of 11:35 PM on Thursday 20 Nov 2014 (Local Time) from K42J Reporting Station
Clear Clear  
Wind Chill: 41°   Ceiling: Unl
Heat Index: 41°   Visibility: 10mi
Dew Point: 37°   Wind: 0mph
Humidity: 87%   Direction: NA
Pressure: 30.27"   Gusts: NA
Location:  30.04°N, 82.07°W
Report Text: K42J 210435Z AUTO 00000KT 10SM CLR 05/03 A3027 RMK AO1 TSNO
Loading
Personal Weather Stations






























Interactive Weather Map New forecast layout! Learn more

10-Day Weather Forecast

Advertisements
Track Severe Weather on mobile